sensor_id;sensor_type;location;lat;lon;timestamp;pressure;altitude;pressure_sealevel;temperature;humidity
38303;BME280;24103;42.454;27.400;2023-07-30T00:00:28;100386.44;;;21.10;100.00
38303;BME280;24103;42.454;27.400;2023-07-30T00:02:54;100387.63;;;21.16;100.00
38303;BME280;24103;42.454;27.400;2023-07-30T00:05:19;100390.00;;;21.19;100.00
38303;BME280;24103;42.454;27.400;2023-07-30T00:07:45;100388.94;;;21.04;100.00
38303;BME280;24103;42.454;27.400;2023-07-30T00:10:11;100388.19;;;20.93;100.00
38303;BME280;24103;42.454;27.400;2023-07-30T00:12:36;100385.50;;;20.93;100.00
38303;BME280;24103;42.454;27.400;2023-07-30T00:15:02;100376.06;;;20.81;100.00
38303;BME280;24103;42.454;27.400;2023-07-30T00:17:28;100391.34;;;20.80;100.00
38303;BME280;24103;42.454;27.400;2023-07-30T00:19:53;100390.63;;;20.78;100.00
38303;BME280;24103;42.454;27.400;2023-07-30T00:22:19;100376.06;;;20.81;100.00
38303;BME280;24103;42.454;27.400;2023-07-30T00:24:44;100391.59;;;20.69;100.00
38303;BME280;24103;42.454;27.400;2023-07-30T00:27:10;100393.69;;;20.57;100.00
38303;BME280;24103;42.454;27.400;2023-07-30T00:29:35;100386.00;;;20.62;100.00
38303;BME280;24103;42.454;27.400;2023-07-30T00:32:01;100398.53;;;20.62;100.00
38303;BME280;24103;42.454;27.400;2023-07-30T00:34:26;100401.31;;;20.70;100.00
38303;BME280;24103;42.454;27.400;2023-07-30T00:36:52;100387.38;;;20.67;100.00
38303;BME280;24103;42.454;27.400;2023-07-30T00:39:17;100400.72;;;20.58;100.00
38303;BME280;24103;42.454;27.400;2023-07-30T00:41:43;100399.13;;;20.66;100.00
38303;BME280;24103;42.454;27.400;2023-07-30T00:44:09;100400.34;;;20.53;100.00
38303;BME280;24103;42.454;27.400;2023-07-30T00:46:34;100396.97;;;20.51;100.00
38303;BME280;24103;42.454;27.400;2023-07-30T00:49:00;100398.66;;;20.52;100.00
38303;BME280;24103;42.454;27.400;2023-07-30T00:51:27;100393.84;;;20.56;100.00
38303;BME280;24103;42.454;27.400;2023-07-30T00:53:55;100390.97;;;20.31;100.00
38303;BME280;24103;42.454;27.400;2023-07-30T00:56:20;100381.47;;;20.19;100.00
38303;BME280;24103;42.454;27.400;2023-07-30T00:58:48;100388.31;;;20.13;100.00
38303;BME280;24103;42.454;27.400;2023-07-30T01:01:14;100394.94;;;20.27;100.00
38303;BME280;24103;42.454;27.400;2023-07-30T01:03:40;100391.81;;;20.14;100.00
38303;BME280;24103;42.454;27.400;2023-07-30T01:06:05;100391.75;;;20.05;100.00
38303;BME280;24103;42.454;27.400;2023-07-30T01:08:32;100401.56;;;20.15;100.00
38303;BME280;24103;42.454;27.400;2023-07-30T01:10:58;100392.03;;;20.20;100.00
38303;BME280;24103;42.454;27.400;2023-07-30T01:13:23;100387.72;;;20.28;100.00
38303;BME280;24103;42.454;27.400;2023-07-30T01:15:49;100395.25;;;20.24;100.00
38303;BME280;24103;42.454;27.400;2023-07-30T01:18:15;100386.06;;;20.27;100.00
38303;BME280;24103;42.454;27.400;2023-07-30T01:20:41;100384.06;;;20.29;100.00
38303;BME280;24103;42.454;27.400;2023-07-30T01:23:06;100396.94;;;20.25;100.00
38303;BME280;24103;42.454;27.400;2023-07-30T01:25:36;100383.78;;;20.14;100.00
38303;BME280;24103;42.454;27.400;2023-07-30T01:28:03;100392.97;;;20.11;100.00
38303;BME280;24103;42.454;27.400;2023-07-30T01:30:38;100382.31;;;20.19;100.00
38303;BME280;24103;42.454;27.400;2023-07-30T01:33:06;100374.69;;;20.06;100.00
38303;BME280;24103;42.454;27.400;2023-07-30T01:35:32;100384.88;;;20.03;100.00
38303;BME280;24103;42.454;27.400;2023-07-30T01:38:01;100389.69;;;19.99;100.00
38303;BME280;24103;42.454;27.400;2023-07-30T01:40:29;100394.22;;;19.99;100.00
38303;BME280;24103;42.454;27.400;2023-07-30T01:42:54;100387.00;;;19.99;100.00
38303;BME280;24103;42.454;27.400;2023-07-30T01:45:20;100396.97;;;20.07;100.00
38303;BME280;24103;42.454;27.400;2023-07-30T01:47:45;100390.06;;;20.04;100.00
38303;BME280;24103;42.454;27.400;2023-07-30T01:50:11;100392.50;;;19.98;100.00
38303;BME280;24103;42.454;27.400;2023-07-30T01:52:37;100384.06;;;19.75;100.00
38303;BME280;24103;42.454;27.400;2023-07-30T01:55:02;100394.41;;;19.69;100.00
38303;BME280;24103;42.454;27.400;2023-07-30T01:57:28;100403.97;;;19.72;100.00
38303;BME280;24103;42.454;27.400;2023-07-30T01:59:53;100406.25;;;19.77;100.00
38303;BME280;24103;42.454;27.400;2023-07-30T02:02:19;100403.84;;;19.74;100.00
38303;BME280;24103;42.454;27.400;2023-07-30T02:04:44;100405.47;;;19.57;100.00
38303;BME280;24103;42.454;27.400;2023-07-30T02:07:10;100405.25;;;19.68;100.00
38303;BME280;24103;42.454;27.400;2023-07-30T02:09:35;100394.50;;;19.78;100.00
38303;BME280;24103;42.454;27.400;2023-07-30T02:12:01;100402.78;;;19.84;100.00
38303;BME280;24103;42.454;27.400;2023-07-30T02:14:26;100401.88;;;19.76;100.00
38303;BME280;24103;42.454;27.400;2023-07-30T02:16:52;100391.41;;;19.73;100.00
38303;BME280;24103;42.454;27.400;2023-07-30T02:19:18;100389.91;;;19.70;100.00
38303;BME280;24103;42.454;27.400;2023-07-30T02:21:43;100389.34;;;19.66;100.00
38303;BME280;24103;42.454;27.400;2023-07-30T02:24:09;100393.41;;;19.70;100.00
38303;BME280;24103;42.454;27.400;2023-07-30T02:26:37;100405.91;;;19.62;100.00
38303;BME280;24103;42.454;27.400;2023-07-30T02:29:03;100405.47;;;19.57;100.00
38303;BME280;24103;42.454;27.400;2023-07-30T02:31:29;100395.28;;;19.42;100.00
38303;BME280;24103;42.454;27.400;2023-07-30T02:33:54;100398.31;;;19.57;100.00
38303;BME280;24103;42.454;27.400;2023-07-30T02:36:20;100422.81;;;19.62;100.00
38303;BME280;24103;42.454;27.400;2023-07-30T02:38:45;100416.13;;;19.66;100.00
38303;BME280;24103;42.454;27.400;2023-07-30T02:41:11;100411.09;;;19.63;100.00
38303;BME280;24103;42.454;27.400;2023-07-30T02:43:36;100406.09;;;19.50;100.00
38303;BME280;24103;42.454;27.400;2023-07-30T02:46:02;100420.78;;;19.46;100.00
38303;BME280;24103;42.454;27.400;2023-07-30T02:48:27;100420.34;;;19.51;100.00
38303;BME280;24103;42.454;27.400;2023-07-30T02:50:53;100412.97;;;19.53;100.00
38303;BME280;24103;42.454;27.400;2023-07-30T02:53:18;100415.38;;;19.56;100.00
38303;BME280;24103;42.454;27.400;2023-07-30T02:55:44;100422.53;;;19.38;100.00
38303;BME280;24103;42.454;27.400;2023-07-30T02:58:09;100419.50;;;19.23;100.00
38303;BME280;24103;42.454;27.400;2023-07-30T03:00:34;100402.50;;;19.14;100.00
38303;BME280;24103;42.454;27.400;2023-07-30T03:03:00;100423.41;;;19.28;100.00
38303;BME280;24103;42.454;27.400;2023-07-30T03:05:27;100423.44;;;19.19;100.00
38303;BME280;24103;42.454;27.400;2023-07-30T03:07:52;100430.28;;;19.41;100.00
38303;BME280;24103;42.454;27.400;2023-07-30T03:10:18;100418.88;;;19.39;100.00
38303;BME280;24103;42.454;27.400;2023-07-30T03:12:44;100416.72;;;19.42;100.00
38303;BME280;24103;42.454;27.400;2023-07-30T03:15:09;100414.28;;;19.21;100.00
38303;BME280;24103;42.454;27.400;2023-07-30T03:17:35;100418.34;;;19.25;100.00
38303;BME280;24103;42.454;27.400;2023-07-30T03:20:01;100432.59;;;19.26;100.00
38303;BME280;24103;42.454;27.400;2023-07-30T03:22:26;100431.41;;;19.38;100.00
38303;BME280;24103;42.454;27.400;2023-07-30T03:24:52;100426.81;;;19.48;100.00
38303;BME280;24103;42.454;27.400;2023-07-30T03:27:17;100424.25;;;19.75;100.00
38303;BME280;24103;42.454;27.400;2023-07-30T03:29:43;100425.72;;;20.15;100.00
38303;BME280;24103;42.454;27.400;2023-07-30T03:32:08;100426.34;;;20.71;100.00
38303;BME280;24103;42.454;27.400;2023-07-30T03:34:34;100415.50;;;20.80;100.00
38303;BME280;24103;42.454;27.400;2023-07-30T03:36:59;100415.81;;;20.77;100.00
38303;BME280;24103;42.454;27.400;2023-07-30T03:39:26;100426.25;;;21.23;100.00
38303;BME280;24103;42.454;27.400;2023-07-30T03:41:51;100408.66;;;21.63;100.00
38303;BME280;24103;42.454;27.400;2023-07-30T03:44:17;100413.84;;;21.57;100.00
38303;BME280;24103;42.454;27.400;2023-07-30T03:46:43;100412.72;;;21.84;100.00
38303;BME280;24103;42.454;27.400;2023-07-30T03:49:08;100420.94;;;21.82;100.00
38303;BME280;24103;42.454;27.400;2023-07-30T03:51:34;100402.78;;;21.84;100.00
38303;BME280;24103;42.454;27.400;2023-07-30T03:54:00;100409.34;;;22.89;100.00
38303;BME280;24103;42.454;27.400;2023-07-30T03:56:25;100403.41;;;24.80;87.98
38303;BME280;24103;42.454;27.400;2023-07-30T03:58:51;100379.78;;;26.35;72.37
38303;BME280;24103;42.454;27.400;2023-07-30T04:01:17;100380.69;;;27.67;63.81
38303;BME280;24103;42.454;27.400;2023-07-30T04:03:42;100367.34;;;28.85;56.19
38303;BME280;24103;42.454;27.400;2023-07-30T04:06:07;100377.69;;;29.15;53.56
38303;BME280;24103;42.454;27.400;2023-07-30T04:08:33;100367.50;;;30.20;49.80
38303;BME280;24103;42.454;27.400;2023-07-30T04:10:58;100368.16;;;30.84;47.10
38303;BME280;24103;42.454;27.400;2023-07-30T04:13:24;100358.53;;;31.79;45.15
38303;BME280;24103;42.454;27.400;2023-07-30T04:15:49;100353.75;;;32.76;41.90
38303;BME280;24103;42.454;27.400;2023-07-30T04:18:16;100345.19;;;32.72;41.32
38303;BME280;24103;42.454;27.400;2023-07-30T04:20:41;100359.69;;;32.61;41.46
38303;BME280;24103;42.454;27.400;2023-07-30T04:23:07;100352.75;;;33.63;40.09
38303;BME280;24103;42.454;27.400;2023-07-30T04:25:32;100360.63;;;33.59;39.86
38303;BME280;24103;42.454;27.400;2023-07-30T04:27:58;100357.03;;;33.88;38.84
38303;BME280;24103;42.454;27.400;2023-07-30T04:30:23;100351.81;;;34.03;38.02
38303;BME280;24103;42.454;27.400;2023-07-30T04:32:49;100347.38;;;33.39;39.08
38303;BME280;24103;42.454;27.400;2023-07-30T04:35:15;100352.94;;;32.75;39.94
38303;BME280;24103;42.454;27.400;2023-07-30T04:37:40;100360.22;;;33.10;39.52
38303;BME280;24103;42.454;27.400;2023-07-30T04:40:06;100347.22;;;33.75;38.19
38303;BME280;24103;42.454;27.400;2023-07-30T04:42:32;100354.69;;;34.13;37.49
38303;BME280;24103;42.454;27.400;2023-07-30T04:44:57;100349.97;;;34.65;36.85
38303;BME280;24103;42.454;27.400;2023-07-30T04:47:23;100354.50;;;35.15;36.02
38303;BME280;24103;42.454;27.400;2023-07-30T04:49:48;100349.38;;;35.46;35.05
38303;BME280;24103;42.454;27.400;2023-07-30T04:52:14;100349.38;;;36.06;33.87
38303;BME280;24103;42.454;27.400;2023-07-30T04:54:39;100344.50;;;36.18;33.91
38303;BME280;24103;42.454;27.400;2023-07-30T04:57:05;100346.00;;;36.31;33.75
38303;BME280;24103;42.454;27.400;2023-07-30T04:59:31;100337.16;;;36.24;33.66
38303;BME280;24103;42.454;27.400;2023-07-30T05:01:59;100347.13;;;36.35;33.71
38303;BME280;24103;42.454;27.400;2023-07-30T05:04:25;100343.41;;;36.62;33.53
38303;BME280;24103;42.454;27.400;2023-07-30T05:06:50;100346.09;;;37.04;32.59
38303;BME280;24103;42.454;27.400;2023-07-30T05:09:16;100347.00;;;37.20;32.86
38303;BME280;24103;42.454;27.400;2023-07-30T05:11:41;100345.38;;;37.40;32.20
38303;BME280;24103;42.454;27.400;2023-07-30T05:14:07;100348.75;;;37.78;31.59
38303;BME280;24103;42.454;27.400;2023-07-30T05:16:32;100345.72;;;37.79;31.22
38303;BME280;24103;42.454;27.400;2023-07-30T05:18:58;100341.88;;;37.91;31.28
38303;BME280;24103;42.454;27.400;2023-07-30T05:21:23;100352.06;;;38.26;31.32
38303;BME280;24103;42.454;27.400;2023-07-30T05:23:49;100349.84;;;38.39;30.78
38303;BME280;24103;42.454;27.400;2023-07-30T05:26:14;100349.50;;;38.61;29.97
38303;BME280;24103;42.454;27.400;2023-07-30T05:28:40;100351.72;;;38.64;30.63
38303;BME280;24103;42.454;27.400;2023-07-30T05:31:05;100350.63;;;38.65;30.30
38303;BME280;24103;42.454;27.400;2023-07-30T05:33:31;100347.84;;;38.65;30.51
38303;BME280;24103;42.454;27.400;2023-07-30T05:35:56;100351.41;;;38.70;30.41
38303;BME280;24103;42.454;27.400;2023-07-30T05:38:21;100354.69;;;38.83;30.08
38303;BME280;24103;42.454;27.400;2023-07-30T05:40:47;100345.69;;;38.41;31.06
38303;BME280;24103;42.454;27.400;2023-07-30T05:43:13;100349.44;;;39.36;29.67
38303;BME280;24103;42.454;27.400;2023-07-30T05:45:39;100354.59;;;39.53;28.74
38303;BME280;24103;42.454;27.400;2023-07-30T05:48:04;100345.09;;;39.70;28.73
38303;BME280;24103;42.454;27.400;2023-07-30T05:50:30;100339.78;;;40.13;28.03
38303;BME280;24103;42.454;27.400;2023-07-30T05:52:55;100342.84;;;40.35;28.07
38303;BME280;24103;42.454;27.400;2023-07-30T05:55:23;100341.81;;;40.56;27.64
38303;BME280;24103;42.454;27.400;2023-07-30T05:57:48;100350.16;;;40.50;27.87
38303;BME280;24103;42.454;27.400;2023-07-30T06:00:14;100336.03;;;40.52;27.39
38303;BME280;24103;42.454;27.400;2023-07-30T06:02:40;100342.25;;;40.39;27.63
38303;BME280;24103;42.454;27.400;2023-07-30T06:05:05;100343.41;;;40.32;27.76
38303;BME280;24103;42.454;27.400;2023-07-30T06:07:31;100345.56;;;40.41;27.90
38303;BME280;24103;42.454;27.400;2023-07-30T06:09:56;100345.94;;;40.58;26.81
38303;BME280;24103;42.454;27.400;2023-07-30T06:12:22;100343.66;;;41.08;26.98
38303;BME280;24103;42.454;27.400;2023-07-30T06:14:47;100339.44;;;41.35;26.75
38303;BME280;24103;42.454;27.400;2023-07-30T06:17:13;100329.06;;;41.41;26.19
38303;BME280;24103;42.454;27.400;2023-07-30T06:19:38;100330.66;;;41.28;26.72
38303;BME280;24103;42.454;27.400;2023-07-30T06:22:04;100323.72;;;41.63;26.19
38303;BME280;24103;42.454;27.400;2023-07-30T06:24:29;100318.34;;;41.53;25.61
38303;BME280;24103;42.454;27.400;2023-07-30T06:26:55;100319.97;;;41.73;24.71
38303;BME280;24103;42.454;27.400;2023-07-30T06:29:20;100311.25;;;41.61;24.76
38303;BME280;24103;42.454;27.400;2023-07-30T06:31:46;100306.94;;;41.88;24.26
38303;BME280;24103;42.454;27.400;2023-07-30T06:34:11;100314.91;;;41.94;24.20
38303;BME280;24103;42.454;27.400;2023-07-30T06:36:37;100307.53;;;42.45;23.94
38303;BME280;24103;42.454;27.400;2023-07-30T06:39:02;100301.56;;;42.94;22.97
38303;BME280;24103;42.454;27.400;2023-07-30T06:41:29;100299.63;;;42.80;22.81
38303;BME280;24103;42.454;27.400;2023-07-30T06:43:54;100300.47;;;42.39;23.61
38303;BME280;24103;42.454;27.400;2023-07-30T06:46:20;100296.97;;;42.47;23.56
38303;BME280;24103;42.454;27.400;2023-07-30T06:48:45;100300.84;;;42.19;23.25
38303;BME280;24103;42.454;27.400;2023-07-30T06:51:11;100292.13;;;42.67;22.61
38303;BME280;24103;42.454;27.400;2023-07-30T06:53:38;100289.50;;;42.98;22.70
38303;BME280;24103;42.454;27.400;2023-07-30T06:56:03;100281.69;;;43.23;22.33
38303;BME280;24103;42.454;27.400;2023-07-30T06:58:29;100278.44;;;43.43;21.75
38303;BME280;24103;42.454;27.400;2023-07-30T07:00:54;100283.69;;;43.45;22.42
38303;BME280;24103;42.454;27.400;2023-07-30T07:03:20;100274.25;;;43.32;22.18
38303;BME280;24103;42.454;27.400;2023-07-30T07:05:53;100274.75;;;43.34;20.36
38303;BME280;24103;42.454;27.400;2023-07-30T07:08:19;100268.59;;;43.60;20.51
38303;BME280;24103;42.454;27.400;2023-07-30T07:10:44;100262.38;;;43.63;20.80
38303;BME280;24103;42.454;27.400;2023-07-30T07:13:10;100267.06;;;43.76;21.20
38303;BME280;24103;42.454;27.400;2023-07-30T07:15:35;100267.09;;;44.16;20.77
38303;BME280;24103;42.454;27.400;2023-07-30T07:18:01;100253.25;;;43.71;19.70
38303;BME280;24103;42.454;27.400;2023-07-30T07:20:26;100255.34;;;44.28;19.20
38303;BME280;24103;42.454;27.400;2023-07-30T07:22:52;100249.00;;;44.54;19.05
38303;BME280;24103;42.454;27.400;2023-07-30T07:25:18;100251.44;;;44.47;19.40
38303;BME280;24103;42.454;27.400;2023-07-30T07:27:44;100263.31;;;44.61;19.85
38303;BME280;24103;42.454;27.400;2023-07-30T07:30:10;100251.69;;;44.85;18.49
38303;BME280;24103;42.454;27.400;2023-07-30T07:32:36;100248.00;;;45.81;17.36
38303;BME280;24103;42.454;27.400;2023-07-30T07:35:04;100238.69;;;45.51;17.41
38303;BME280;24103;42.454;27.400;2023-07-30T07:37:31;100237.56;;;45.52;17.46
38303;BME280;24103;42.454;27.400;2023-07-30T07:39:57;100236.19;;;45.84;16.44
38303;BME280;24103;42.454;27.400;2023-07-30T07:42:23;100238.38;;;45.61;16.93
38303;BME280;24103;42.454;27.400;2023-07-30T07:44:49;100243.44;;;46.06;17.40
38303;BME280;24103;42.454;27.400;2023-07-30T07:47:15;100234.81;;;46.29;15.45
38303;BME280;24103;42.454;27.400;2023-07-30T07:49:41;100215.41;;;46.32;15.82
38303;BME280;24103;42.454;27.400;2023-07-30T07:52:07;100231.50;;;45.97;17.25
38303;BME280;24103;42.454;27.400;2023-07-30T07:54:32;100214.34;;;46.16;16.61
38303;BME280;24103;42.454;27.400;2023-07-30T07:56:58;100228.69;;;46.06;17.43
38303;BME280;24103;42.454;27.400;2023-07-30T07:59:24;100232.06;;;45.73;18.28
38303;BME280;24103;42.454;27.400;2023-07-30T08:01:49;100246.78;;;44.82;21.06
38303;BME280;24103;42.454;27.400;2023-07-30T08:04:15;100238.16;;;43.63;21.78
38303;BME280;24103;42.454;27.400;2023-07-30T08:06:40;100239.25;;;43.08;22.47
38303;BME280;24103;42.454;27.400;2023-07-30T08:09:06;100242.47;;;42.38;23.09
38303;BME280;24103;42.454;27.400;2023-07-30T08:11:31;100242.13;;;41.51;24.58
38303;BME280;24103;42.454;27.400;2023-07-30T08:13:57;100257.50;;;39.89;25.91
38303;BME280;24103;42.454;27.400;2023-07-30T08:16:23;100259.84;;;38.38;27.33
38303;BME280;24103;42.454;27.400;2023-07-30T08:18:48;100264.94;;;37.43;31.07
38303;BME280;24103;42.454;27.400;2023-07-30T08:21:14;100262.69;;;36.41;30.65
38303;BME280;24103;42.454;27.400;2023-07-30T08:23:42;100280.91;;;35.17;34.48
38303;BME280;24103;42.454;27.400;2023-07-30T08:26:08;100297.16;;;34.30;38.33
38303;BME280;24103;42.454;27.400;2023-07-30T08:28:34;100280.84;;;33.10;38.81
38303;BME280;24103;42.454;27.400;2023-07-30T08:31:00;100293.72;;;32.33;40.72
38303;BME280;24103;42.454;27.400;2023-07-30T08:33:29;100302.03;;;32.03;41.67
38303;BME280;24103;42.454;27.400;2023-07-30T08:35:55;100308.41;;;31.73;42.88
38303;BME280;24103;42.454;27.400;2023-07-30T08:38:22;100300.03;;;31.26;45.02
38303;BME280;24103;42.454;27.400;2023-07-30T08:40:47;100306.41;;;31.38;43.23
38303;BME280;24103;42.454;27.400;2023-07-30T08:43:13;100309.13;;;31.38;45.18
38303;BME280;24103;42.454;27.400;2023-07-30T08:45:40;100303.66;;;31.08;47.49
38303;BME280;24103;42.454;27.400;2023-07-30T08:48:05;100305.88;;;30.99;46.87
38303;BME280;24103;42.454;27.400;2023-07-30T08:50:31;100307.69;;;30.87;49.26
38303;BME280;24103;42.454;27.400;2023-07-30T08:52:59;100297.13;;;30.72;46.15
38303;BME280;24103;42.454;27.400;2023-07-30T08:55:27;100300.66;;;30.61;47.93
38303;BME280;24103;42.454;27.400;2023-07-30T08:57:56;100311.63;;;30.54;52.14
38303;BME280;24103;42.454;27.400;2023-07-30T09:00:25;100293.63;;;30.28;52.89
38303;BME280;24103;42.454;27.400;2023-07-30T09:02:56;100304.38;;;30.23;56.55
38303;BME280;24103;42.454;27.400;2023-07-30T09:05:24;100307.44;;;30.08;55.20
38303;BME280;24103;42.454;27.400;2023-07-30T09:07:49;100303.13;;;29.68;53.80
38303;BME280;24103;42.454;27.400;2023-07-30T09:10:15;100291.16;;;29.44;54.23
38303;BME280;24103;42.454;27.400;2023-07-30T09:12:41;100302.44;;;29.48;51.74
38303;BME280;24103;42.454;27.400;2023-07-30T09:15:07;100293.38;;;29.86;53.95
38303;BME280;24103;42.454;27.400;2023-07-30T09:17:33;100296.31;;;30.09;51.28
38303;BME280;24103;42.454;27.400;2023-07-30T09:20:00;100298.53;;;30.19;51.49
38303;BME280;24103;42.454;27.400;2023-07-30T09:22:28;100295.66;;;30.39;51.12
38303;BME280;24103;42.454;27.400;2023-07-30T09:24:57;100285.41;;;30.53;46.16
38303;BME280;24103;42.454;27.400;2023-07-30T09:27:25;100270.34;;;30.50;43.67
38303;BME280;24103;42.454;27.400;2023-07-30T09:29:59;100283.44;;;30.42;43.62
38303;BME280;24103;42.454;27.400;2023-07-30T09:32:28;100283.16;;;30.50;43.51
38303;BME280;24103;42.454;27.400;2023-07-30T09:34:54;100270.50;;;30.37;41.91
38303;BME280;24103;42.454;27.400;2023-07-30T09:37:20;100271.53;;;30.36;40.98
38303;BME280;24103;42.454;27.400;2023-07-30T09:39:49;100276.94;;;30.43;40.97
38303;BME280;24103;42.454;27.400;2023-07-30T09:42:14;100253.53;;;30.54;38.34
38303;BME280;24103;42.454;27.400;2023-07-30T09:44:40;100262.94;;;30.39;37.22
38303;BME280;24103;42.454;27.400;2023-07-30T09:47:11;100256.63;;;30.57;36.78
38303;BME280;24103;42.454;27.400;2023-07-30T09:49:38;100246.94;;;30.61;35.64
38303;BME280;24103;42.454;27.400;2023-07-30T09:52:05;100236.72;;;30.57;36.16
38303;BME280;24103;42.454;27.400;2023-07-30T09:54:31;100237.53;;;30.57;35.42
38303;BME280;24103;42.454;27.400;2023-07-30T09:56:58;100251.84;;;30.71;36.16
38303;BME280;24103;42.454;27.400;2023-07-30T09:59:24;100226.63;;;30.76;34.93
38303;BME280;24103;42.454;27.400;2023-07-30T10:01:50;100223.81;;;30.82;34.27
38303;BME280;24103;42.454;27.400;2023-07-30T10:04:19;100226.53;;;30.82;34.26
38303;BME280;24103;42.454;27.400;2023-07-30T10:07:04;100222.03;;;30.88;35.96
38303;BME280;24103;42.454;27.400;2023-07-30T10:09:37;100210.34;;;30.50;34.97
38303;BME280;24103;42.454;27.400;2023-07-30T10:12:13;100225.03;;;30.68;36.13
38303;BME280;24103;42.454;27.400;2023-07-30T10:14:41;100206.13;;;30.85;35.32
38303;BME280;24103;42.454;27.400;2023-07-30T10:17:09;100215.41;;;30.65;33.42
38303;BME280;24103;42.454;27.400;2023-07-30T10:19:36;100209.69;;;30.55;36.09
38303;BME280;24103;42.454;27.400;2023-07-30T10:24:40;100225.50;;;30.65;39.42
38303;BME280;24103;42.454;27.400;2023-07-30T10:27:07;100227.78;;;30.31;40.63
38303;BME280;24103;42.454;27.400;2023-07-30T10:29:35;100228.38;;;30.33;40.43
38303;BME280;24103;42.454;27.400;2023-07-30T10:32:05;100230.09;;;30.09;42.04
38303;BME280;24103;42.454;27.400;2023-07-30T10:34:44;100232.28;;;29.75;41.51
38303;BME280;24103;42.454;27.400;2023-07-30T10:37:10;100221.59;;;29.80;42.03
38303;BME280;24103;42.454;27.400;2023-07-30T10:39:36;100220.00;;;29.91;43.93
38303;BME280;24103;42.454;27.400;2023-07-30T10:42:01;100221.06;;;29.90;42.04
38303;BME280;24103;42.454;27.400;2023-07-30T10:44:29;100218.56;;;29.88;41.26
38303;BME280;24103;42.454;27.400;2023-07-30T10:46:58;100218.75;;;30.12;44.28
38303;BME280;24103;42.454;27.400;2023-07-30T10:49:25;100217.22;;;29.98;44.24
38303;BME280;24103;42.454;27.400;2023-07-30T10:51:55;100210.94;;;30.34;44.56
38303;BME280;24103;42.454;27.400;2023-07-30T10:54:21;100211.16;;;30.39;43.39
38303;BME280;24103;42.454;27.400;2023-07-30T10:56:47;100223.53;;;30.17;44.87
38303;BME280;24103;42.454;27.400;2023-07-30T10:59:14;100220.44;;;30.31;45.48
38303;BME280;24103;42.454;27.400;2023-07-30T11:01:44;100208.66;;;30.38;44.34
38303;BME280;24103;42.454;27.400;2023-07-30T11:06:37;100213.16;;;30.07;46.63
38303;BME280;24103;42.454;27.400;2023-07-30T11:09:03;100215.19;;;30.11;45.39
38303;BME280;24103;42.454;27.400;2023-07-30T11:11:30;100214.34;;;29.92;48.19
38303;BME280;24103;42.454;27.400;2023-07-30T11:13:56;100199.66;;;29.93;47.83
38303;BME280;24103;42.454;27.400;2023-07-30T11:16:22;100213.44;;;30.17;46.57
38303;BME280;24103;42.454;27.400;2023-07-30T11:18:48;100204.84;;;29.76;46.51
38303;BME280;24103;42.454;27.400;2023-07-30T11:21:15;100193.00;;;29.89;47.24
38303;BME280;24103;42.454;27.400;2023-07-30T11:23:44;100204.09;;;29.88;46.22
38303;BME280;24103;42.454;27.400;2023-07-30T11:26:16;100202.78;;;30.16;46.38
38303;BME280;24103;42.454;27.400;2023-07-30T11:28:43;100190.22;;;30.33;46.40
38303;BME280;24103;42.454;27.400;2023-07-30T11:31:10;100193.16;;;30.31;45.54
38303;BME280;24103;42.454;27.400;2023-07-30T11:33:40;100191.34;;;30.25;45.99
38303;BME280;24103;42.454;27.400;2023-07-30T11:36:15;100172.72;;;30.22;44.67
38303;BME280;24103;42.454;27.400;2023-07-30T11:38:41;100180.53;;;30.19;43.30
38303;BME280;24103;42.454;27.400;2023-07-30T11:41:09;100171.59;;;30.11;43.24
38303;BME280;24103;42.454;27.400;2023-07-30T11:43:39;100175.72;;;30.39;45.95
38303;BME280;24103;42.454;27.400;2023-07-30T11:46:17;100187.81;;;30.74;45.41
38303;BME280;24103;42.454;27.400;2023-07-30T11:48:53;100167.69;;;30.75;44.10
38303;BME280;24103;42.454;27.400;2023-07-30T11:51:35;100187.91;;;30.67;42.35
38303;BME280;24103;42.454;27.400;2023-07-30T11:54:02;100176.75;;;30.20;42.65
38303;BME280;24103;42.454;27.400;2023-07-30T11:56:34;100175.53;;;30.16;43.84
38303;BME280;24103;42.454;27.400;2023-07-30T11:59:07;100179.09;;;30.16;42.80
38303;BME280;24103;42.454;27.400;2023-07-30T12:01:35;100166.31;;;30.17;43.65
38303;BME280;24103;42.454;27.400;2023-07-30T12:04:03;100166.25;;;30.05;41.92
38303;BME280;24103;42.454;27.400;2023-07-30T12:06:39;100167.72;;;30.19;43.95
38303;BME280;24103;42.454;27.400;2023-07-30T12:09:15;100161.16;;;30.45;42.31
38303;BME280;24103;42.454;27.400;2023-07-30T12:11:53;100155.91;;;30.44;41.83
38303;BME280;24103;42.454;27.400;2023-07-30T12:14:22;100152.88;;;30.52;41.91
38303;BME280;24103;42.454;27.400;2023-07-30T12:16:51;100159.59;;;30.38;43.33
38303;BME280;24103;42.454;27.400;2023-07-30T12:19:16;100144.28;;;30.37;43.64
38303;BME280;24103;42.454;27.400;2023-07-30T12:21:42;100151.28;;;30.26;43.78
38303;BME280;24103;42.454;27.400;2023-07-30T12:24:07;100138.59;;;30.20;42.43
38303;BME280;24103;42.454;27.400;2023-07-30T12:26:33;100137.84;;;30.12;40.62
38303;BME280;24103;42.454;27.400;2023-07-30T12:28:59;100140.03;;;30.22;42.24
38303;BME280;24103;42.454;27.400;2023-07-30T12:31:24;100126.06;;;29.82;41.96
38303;BME280;24103;42.454;27.400;2023-07-30T12:33:49;100132.53;;;30.18;41.52
38303;BME280;24103;42.454;27.400;2023-07-30T12:36:15;100129.50;;;30.07;41.72
38303;BME280;24103;42.454;27.400;2023-07-30T12:38:41;100120.66;;;30.12;41.80